75000 - Paris

Modèle arome - 04/05/2026 12:00
Altitude : 28 - 131m

05/05/2026 à 11:58 (UTC)

Date (UTC!) Model Picto Température Min Max T850 T950 Humidité Précipitation Neige (proba) Pression Nuages Bas Nuages Moyen Nuages Haut Nuages Total Nuages Corrigés CAPE Iso Vent (dir) Vent (vitesse) Rafales (vitesse)
04/05 - 13:00 arome 17,23 16,44 17,23 5,52 11,87 77,10 0,11 (1h) 0,00 10,12 58,55 100,00 100,00 100,01 100,00 369,40 0,00 143,75 0,67 9,92
04/05 - 14:00 arome 17,74 17,22 17,76 6,45 12,39 72,64 0,08 (1h) 0,00 10,11 50,70 100,00 100,00 100,01 100,00 274,72 0,00 12,78 3,58 11,40
04/05 - 15:00 arome 18,13 17,74 18,13 6,81 12,75 69,42 0,03 (1h) 0,00 10,11 46,10 100,00 95,20 100,01 100,00 256,53 0,00 343,38 5,03 15,41
04/05 - 16:00 arome 17,84 17,84 18,31 6,90 12,67 73,27 0,17 (1h) 0,00 10,11 5,80 100,00 93,30 100,01 100,00 414,02 0,00 7,22 5,15 16,41
04/05 - 17:00 arome 18,01 17,84 18,01 6,18 12,92 71,66 0,09 (1h) 0,00 10,11 46,85 100,00 2,55 100,01 100,00 480,57 0,00 1,86 5,55 14,32
04/05 - 18:00 arome 17,83 17,84 18,13 6,61 13,07 68,52 0,03 (1h) 0,00 10,10 9,95 100,00 100,00 100,01 100,00 318,77 0,00 23,41 6,43 13,65
04/05 - 19:00 arome 17,51 17,51 17,82 6,60 12,89 70,60 0,01 (1h) 0,00 10,11 1,30 100,00 15,45 100,01 100,00 309,74 0,00 19,08 8,04 15,43
04/05 - 20:00 arome 17,00 17,00 17,50 6,47 12,80 77,97 0,00 (1h) 0,00 10,11 37,95 100,00 80,40 100,01 100,00 510,80 0,00 337,25 4,84 15,05
04/05 - 21:00 arome 16,23 16,23 17,01 6,54 12,55 82,30 0,40 (1h) 0,00 10,11 3,70 56,85 100,00 100,01 56,85 286,97 0,00 6,56 9,13 19,02
04/05 - 22:00 arome 15,88 15,87 16,19 6,52 12,28 84,31 0,00 (1h) 0,00 10,11 61,05 39,35 100,00 100,01 61,05 340,08 0,00 24,68 7,84 17,25
04/05 - 23:00 arome 15,18 15,18 15,88 6,63 12,06 84,72 0,00 (1h) 0,00 10,10 16,05 2,65 100,00 100,01 50,01 81,87 0,00 11,94 9,05 21,44
05/05 - 00:00 arome 14,96 14,95 15,17 6,66 12,25 84,77 0,00 (1h) 0,00 10,10 6,55 12,80 100,00 100,01 50,01 80,27 0,00 39,78 9,79 18,25
05/05 - 01:00 arome 14,42 14,42 14,96 6,26 12,37 90,39 0,00 (1h) 0,00 10,10 98,40 98,60 100,00 100,01 98,60 77,88 0,00 34,72 9,42 21,95
05/05 - 02:00 arome 14,11 14,11 14,41 6,57 11,47 92,42 0,00 (1h) 0,00 10,09 100,00 32,40 100,00 100,01 100,00 58,72 0,00 19,65 8,03 19,07
05/05 - 03:00 arome 14,05 14,05 14,10 6,25 10,85 92,96 0,00 (1h) 0,00 10,09 100,00 98,35 100,00 100,01 100,00 82,54 0,00 26,79 8,23 18,88
05/05 - 04:00 arome 13,92 13,92 14,06 6,24 10,76 94,79 0,00 (1h) 0,00 10,09 100,00 100,00 100,00 100,01 100,00 74,50 0,00 27,34 9,48 19,31
05/05 - 05:00 arome 13,58 13,58 13,91 6,18 10,37 96,08 0,00 (1h) 0,00 10,08 100,00 100,00 100,00 100,01 100,00 48,84 0,00 16,45 11,82 23,53
05/05 - 06:00 arome 13,68 13,49 13,68 5,56 10,16 91,52 0,00 (1h) 0,00 10,08 100,00 100,00 100,00 100,01 100,00 54,87 0,00 26,35 12,65 27,56
05/05 - 07:00 arome 13,41 13,40 13,68 5,77 9,95 91,83 0,00 (1h) 0,00 10,08 100,00 100,00 100,00 100,01 100,00 21,79 0,00 25,61 12,50 26,60
05/05 - 08:00 arome 13,47 13,34 13,47 5,90 9,89 90,55 0,00 (1h) 0,00 10,08 100,00 100,00 100,00 100,01 100,00 13,33 0,00 24,64 11,49 25,24
05/05 - 09:00 arome 13,90 13,48 13,98 5,73 10,01 88,01 0,00 (1h) 0,00 10,08 100,00 100,00 100,00 100,01 100,00 36,84 0,00 17,62 11,18 24,46
05/05 - 10:00 arome 13,95 13,89 13,96 5,70 10,02 87,61 0,22 (1h) 0,00 10,07 100,00 100,00 100,00 100,01 100,00 35,14 0,00 9,40 11,46 23,81
05/05 - 11:00 arome 14,13 13,94 14,19 5,77 10,05 86,48 0,41 (1h) 0,00 10,07 100,00 100,00 100,00 100,01 100,00 42,99 0,00 359,63 11,16 23,59
05/05 - 12:00 arome 14,79 14,12 14,80 5,41 10,20 82,30 0,00 (1h) 0,00 10,07 100,00 100,00 100,00 100,01 100,00 81,49 0,00 352,92 11,10 22,75
05/05 - 13:00 arome 14,23 14,24 14,81 5,17 10,05 86,23 1,82 (1h) 0,00 10,07 100,00 100,00 100,00 100,01 100,00 75,73 0,00 354,30 13,78 27,68
05/05 - 14:00 arome 13,99 13,99 14,23 5,12 9,89 86,60 0,36 (1h) 0,00 10,07 100,00 100,00 100,00 100,01 100,00 51,70 0,00 343,53 11,94 27,56
05/05 - 15:00 arome 13,90 13,88 13,98 5,07 9,79 86,50 0,87 (1h) 0,00 10,07 100,00 100,00 100,00 100,01 100,00 42,20 0,00 345,04 12,41 25,14
05/05 - 16:00 arome 13,93 13,90 13,96 5,05 9,82 86,31 1,65 (1h) 0,00 10,07 100,00 100,00 100,00 100,01 100,00 58,26 0,00 328,92 9,42 24,84
05/05 - 17:00 arome 13,84 13,84 13,93 4,89 9,82 87,16 4,07 (1h) 0,00 10,07 100,00 100,00 100,00 100,01 100,00 68,95 0,00 314,84 9,24 19,15
05/05 - 18:00 arome 13,56 13,57 13,87 4,63 9,62 87,80 3,87 (1h) 0,00 10,07 100,00 100,00 100,00 100,01 100,00 59,58 0,00 314,00 8,76 21,98
05/05 - 19:00 arome 13,24 13,23 13,56 4,46 9,52 87,00 3,65 (1h) 0,00 10,07 100,00 100,00 100,00 100,01 100,00 29,64 0,00 348,17 8,61 18,45
05/05 - 20:00 arome 13,16 13,10 13,26 4,25 9,25 89,15 3,24 (1h) 0,00 10,08 100,00 100,00 100,00 100,01 100,00 64,44 0,00 327,64 8,61 20,00
05/05 - 21:00 arome 12,69 12,65 13,14 3,83 8,66 88,64 2,08 (1h) 0,00 10,08 100,00 100,00 100,00 100,01 100,00 41,75 0,00 320,91 11,13 29,79
05/05 - 22:00 arome 12,12 12,12 12,68 3,35 8,29 87,39 1,95 (1h) 0,00 10,08 69,40 100,00 100,00 100,01 100,00 20,32 0,00 327,90 11,86 25,12
05/05 - 23:00 arome 11,67 11,67 12,12 2,94 8,41 87,47 1,20 (1h) 0,00 10,08 76,05 100,00 100,00 100,01 100,00 22,30 0,00 320,43 13,73 26,91
06/05 - 00:00 arome 11,01 11,02 11,66 2,92 8,21 87,32 0,63 (1h) 0,00 10,08 52,70 100,00 100,00 100,01 100,00 13,65 0,00 329,01 13,98 29,84
06/05 - 01:00 arome 10,28 10,27 11,02 2,60 7,52 86,60 0,87 (1h) 0,00 10,08 91,45 100,00 100,00 100,01 100,00 23,10 0,00 331,00 10,62 27,74
06/05 - 02:00 arome 10,00 9,99 10,27 2,13 7,25 87,87 0,93 (1h) 0,00 10,08 77,55 100,00 100,00 100,01 100,00 14,98 0,00 323,26 9,39 21,15
06/05 - 03:00 arome 9,68 9,68 9,99 2,19 6,13 88,88 0,57 (1h) 0,00 10,08 99,80 100,00 100,00 100,01 100,00 3,04 0,00 317,18 11,39 22,04
06/05 - 04:00 arome 9,24 9,24 9,67 2,03 6,25 88,03 0,70 (1h) 0,00 10,08 92,75 100,00 100,00 100,01 100,00 1,62 0,00 316,70 13,70 26,67
06/05 - 05:00 arome 8,99 8,99 9,23 2,29 5,38 87,72 0,54 (1h) 0,00 10,08 67,45 100,00 100,00 100,01 100,00 2,88 0,00 316,97 12,56 27,50
06/05 - 06:00 arome 9,75 9,00 9,75 2,48 5,23 81,76 0,27 (1h) 0,00 10,08 100,00 100,00 100,00 100,01 100,00 5,17 0,00 324,61 12,81 25,61